Aviation Digital Data Service (ADDS)

Output produced by METARs form (1349 UTC 07 October 2022)
found at http://www.aviationweather.gov/metar/data/
 
VTUD 071300Z 12003KT 070V150 9999 FEW030 SCT100 28/22 Q1011 NOSIG
VTUD 071200Z 00000KT 9999 FEW030 27/24 Q1010 NOSIG
VTUD 071100Z 09005KT 9999 SCT030 30/23 Q1010 NOSIG
VTUD 071000Z 07007KT 020V100 9999 SCT030 32/22 Q1009 NOSIG
VTUD 070900Z 04007KT 340V090 9999 SCT030 33/22 Q1008 NOSIG
VTUD 070800Z 06008KT 020V110 9999 BKN030 33/23 Q1009 NOSIG
VTUD 070700Z 09007KT 050V120 9999 BKN030 32/23 Q1010 NOSIG
VTUD 070600Z 08007KT 010V130 9999 BKN030 34/22 Q1011 NOSIG
VTUD 070500Z 06006KT 350V120 9999 SCT030 32/21 Q1012 NOSIG
VTUD 070400Z 02007KT 340V060 9999 SCT030 30/23 Q1013 NOSIG
VTUD 070300Z 07008KT 020V090 9999 SCT025 30/23 Q1014 NOSIG
VTUD 070200Z 07004KT 340V110 9999 SCT025 29/24 Q1014 NOSIG
VTUD 070100Z VRB02KT 9999 SCT030 28/25 Q1014 NOSIG
VTUD 070000Z VRB01KT 9999 FEW030 27/26 Q1013 NOSIG
VTUD 062300Z 02003KT 9999 FEW030 25/25 Q1012 NOSIG
VTUD 062200Z 01003KT 330V030 9999 FEW040 26/26 Q1012 NOSIG
VTUD 061700Z 00000KT CAVOK 26/26 Q1014 NOSIG
VTUD 061600Z VRB01KT CAVOK 26/26 Q1013 NOSIG
VTUD 061500Z 00000KT CAVOK 27/25 Q1013 NOSIG
VTUD 061400Z 15003KT 110V180 CAVOK 27/25 Q1012 NOSIG
TAF VTUD 071100Z 0712/0812 09005KT 8000 FEW030 SCT100 
     TEMPO 0809/0812 VRB15KT 4000 TSRA FEW018CB BKN020 BKN080